Time;durP1;ratioP1;P1;durP2;ratioP2;P2;SDS_P1;SDS_P2;PMS_P1;PMS_P2;Temp;Humidity;BMP_temperature;BMP_pressure;BME280_temperature;BME280_humidity;BME280_pressure;Samples;Min_cycle;Max_cycle;Signal;HPM_P1;HPM_P2
2022/07/19 00:00:14;;;;;;;4.85;2.90;;;;;;;18.69;100.00;96868.03;5045478;28;20515;-53
2022/07/19 00:02:43;;;;;;;4.25;2.90;;;;;;;18.67;100.00;96866.56;5046181;28;20063;-51
2022/07/19 00:05:13;;;;;;;4.00;3.15;;;;;;;18.57;100.00;96866.00;5038233;28;20072;-55
2022/07/19 00:07:42;;;;;;;3.65;2.95;;;;;;;18.68;100.00;96861.00;5043015;28;20072;-58
2022/07/19 00:10:11;;;;;;;4.63;2.88;;;;;;;18.67;100.00;96864.69;5045038;28;20080;-52
2022/07/19 00:12:40;;;;;;;5.22;3.00;;;;;;;18.61;100.00;96869.97;5040760;28;20443;-50
2022/07/19 00:15:12;;;;;;;4.07;3.03;;;;;;;18.59;100.00;96858.66;5042601;28;20096;-54
2022/07/19 00:17:42;;;;;;;4.22;2.63;;;;;;;18.68;100.00;96860.19;5044714;28;20068;-48
2022/07/19 00:20:12;;;;;;;4.07;2.90;;;;;;;18.37;100.00;96858.53;5042448;28;20585;-51
2022/07/19 00:22:40;;;;;;;4.20;3.03;;;;;;;18.38;100.00;96856.72;5039720;28;20073;-50
2022/07/19 00:25:09;;;;;;;6.93;2.75;;;;;;;18.64;100.00;96859.72;5044875;28;20080;-48
2022/07/19 00:27:38;;;;;;;4.00;2.90;;;;;;;18.61;100.00;96853.94;5041834;28;20096;-53
2022/07/19 00:30:07;;;;;;;4.53;3.03;;;;;;;18.54;100.00;96853.00;5041266;28;20076;-57
2022/07/19 00:32:37;;;;;;;4.38;3.08;;;;;;;18.36;100.00;96864.06;5039176;28;20709;-53
2022/07/19 00:35:06;;;;;;;4.00;2.95;;;;;;;18.35;100.00;96857.09;5043891;28;20076;-57
2022/07/19 00:37:34;;;;;;;7.30;3.15;;;;;;;18.33;100.00;96857.25;5044633;28;20084;-63
2022/07/19 00:40:03;;;;;;;3.45;3.00;;;;;;;18.33;100.00;96854.56;5042947;28;20080;-52
2022/07/19 00:42:31;;;;;;;4.57;3.03;;;;;;;18.37;100.00;96853.19;5040619;28;20081;-53
2022/07/19 00:45:00;;;;;;;5.88;2.88;;;;;;;18.36;100.00;96861.41;5041302;28;20079;-52
2022/07/19 00:47:28;;;;;;;8.18;3.38;;;;;;;18.35;100.00;96863.25;5042404;28;20494;-50
2022/07/19 00:49:58;;;;;;;6.65;3.33;;;;;;;18.21;100.00;96859.56;5041889;28;20081;-52
2022/07/19 00:52:26;;;;;;;4.45;3.40;;;;;;;18.27;100.00;96863.31;5042075;28;20091;-55
2022/07/19 00:54:55;;;;;;;5.22;3.70;;;;;;;18.22;100.00;96868.38;5043463;28;20069;-49
2022/07/19 00:57:25;;;;;;;6.18;3.75;;;;;;;18.26;100.00;96862.50;5043812;28;20088;-51
2022/07/19 00:59:54;;;;;;;8.25;3.70;;;;;;;18.17;100.00;96863.59;5040920;28;20107;-61
2022/07/19 01:02:23;;;;;;;4.82;3.30;;;;;;;18.23;100.00;96862.03;5042041;28;20079;-55
2022/07/19 01:04:51;;;;;;;5.15;3.55;;;;;;;18.25;100.00;96857.34;5045182;28;20084;-58
2022/07/19 01:07:25;;;;;;;5.82;3.35;;;;;;;17.87;100.00;96857.38;5044901;28;20081;-56
2022/07/19 01:09:54;;;;;;;3.95;3.13;;;;;;;17.79;100.00;96854.78;5043379;28;20531;-57
2022/07/19 01:12:23;;;;;;;6.68;3.20;;;;;;;17.77;100.00;96859.47;5038684;28;20714;-55
2022/07/19 01:14:56;;;;;;;5.93;3.45;;;;;;;17.75;100.00;96864.94;5041728;28;20087;-65
2022/07/19 01:17:25;;;;;;;5.13;3.03;;;;;;;18.00;100.00;96854.09;5047315;28;20499;-57
2022/07/19 01:19:53;;;;;;;7.32;3.40;;;;;;;18.06;100.00;96852.53;5046782;28;20068;-56
2022/07/19 01:22:23;;;;;;;4.45;3.00;;;;;;;18.05;100.00;96858.88;5048745;28;20115;-53
2022/07/19 01:24:51;;;;;;;3.90;2.92;;;;;;;18.03;100.00;96856.38;5045534;28;20076;-56
2022/07/19 01:27:19;;;;;;;5.35;3.00;;;;;;;18.02;100.00;96857.41;5044006;28;20517;-53
2022/07/19 01:29:48;;;;;;;5.85;3.55;;;;;;;17.65;100.00;96855.53;5046539;28;20115;-52
2022/07/19 01:32:16;;;;;;;3.78;3.20;;;;;;;17.60;100.00;96856.06;5042131;28;20084;-53
2022/07/19 01:34:44;;;;;;;4.13;3.20;;;;;;;17.36;100.00;96864.25;5048173;28;20125;-58
2022/07/19 01:37:13;;;;;;;5.80;3.15;;;;;;;17.51;100.00;96857.13;5046731;28;20602;-50
2022/07/19 01:39:42;;;;;;;3.90;2.85;;;;;;;17.82;100.00;96862.41;5047080;28;20080;-52
2022/07/19 01:42:11;;;;;;;5.18;3.08;;;;;;;17.62;100.00;96861.22;5049984;28;20095;-50
2022/07/19 01:44:39;;;;;;;6.45;3.13;;;;;;;17.61;100.00;96865.72;5044299;28;20080;-50
2022/07/19 01:47:07;;;;;;;4.43;3.50;;;;;;;17.39;100.00;96855.91;5047078;28;20123;-49
2022/07/19 01:49:36;;;;;;;4.55;3.72;;;;;;;17.35;100.00;96858.09;5040570;28;20593;-53
2022/07/19 01:52:04;;;;;;;7.03;3.78;;;;;;;17.31;100.00;96852.28;5045456;28;20080;-59
2022/07/19 01:54:33;;;;;;;5.63;3.50;;;;;;;17.13;100.00;96851.72;5047529;28;20091;-55
2022/07/19 01:57:02;;;;;;;6.07;3.47;;;;;;;17.05;100.00;96857.13;5042684;28;20081;-59
2022/07/19 01:59:31;;;;;;;5.53;3.30;;;;;;;16.82;100.00;96857.88;5044145;28;20606;-55
2022/07/19 02:01:59;;;;;;;3.70;3.30;;;;;;;16.90;100.00;96859.69;5043800;28;20073;-55
2022/07/19 02:04:28;;;;;;;5.20;3.28;;;;;;;17.11;100.00;96844.94;5045130;28;20079;-54
2022/07/19 02:06:57;;;;;;;3.90;3.22;;;;;;;17.33;100.00;96844.94;5045410;28;20087;-56
2022/07/19 02:09:25;;;;;;;3.17;2.60;;;;;;;17.35;100.00;96844.78;5043544;28;20079;-54
2022/07/19 02:11:54;;;;;;;5.78;3.17;;;;;;;17.34;100.00;96843.09;5044579;28;20167;-55
2022/07/19 02:14:23;;;;;;;5.50;3.28;;;;;;;17.32;100.00;96835.28;5047040;28;20087;-49
2022/07/19 02:16:52;;;;;;;9.60;3.07;;;;;;;17.38;100.00;96832.91;5023769;28;20077;-63
2022/07/19 02:19:21;;;;;;;4.88;3.20;;;;;;;17.16;100.00;96837.22;5047240;28;21100;-56
2022/07/19 02:21:49;;;;;;;5.20;3.17;;;;;;;16.96;100.00;96834.16;5040882;28;20092;-56
2022/07/19 02:24:18;;;;;;;7.78;3.22;;;;;;;16.77;100.00;96830.13;5046803;28;20072;-47
2022/07/19 02:26:46;;;;;;;4.75;3.10;;;;;;;16.96;100.00;96832.34;5043399;28;20085;-52
2022/07/19 02:29:15;;;;;;;5.68;3.20;;;;;;;16.74;100.00;96833.09;5041363;28;20065;-52
2022/07/19 02:31:45;;;;;;;6.05;3.33;;;;;;;16.88;100.00;96828.91;5047866;28;20073;-50
2022/07/19 02:34:13;;;;;;;6.05;3.38;;;;;;;17.01;100.00;96826.50;5040714;28;20088;-48
2022/07/19 02:36:42;;;;;;;6.38;3.03;;;;;;;16.98;100.00;96825.00;5041033;28;20546;-50
2022/07/19 02:39:10;;;;;;;5.22;3.42;;;;;;;17.04;100.00;96823.47;5040010;28;20080;-51
2022/07/19 02:41:39;;;;;;;4.30;3.20;;;;;;;16.93;100.00;96826.53;5044990;28;20072;-58
2022/07/19 02:44:07;;;;;;;5.40;3.42;;;;;;;16.88;100.00;96828.91;5044829;28;20084;-55
2022/07/19 02:46:36;;;;;;;4.97;3.28;;;;;;;16.89;100.00;96828.72;5043310;28;20079;-50
2022/07/19 02:49:05;;;;;;;4.10;3.40;;;;;;;16.91;100.00;96828.56;5041159;28;20107;-52
2022/07/19 02:51:34;;;;;;;5.65;3.38;;;;;;;16.93;100.00;96826.53;5043528;28;20507;-51
2022/07/19 02:54:03;;;;;;;9.18;3.67;;;;;;;16.81;100.00;96828.78;5039867;28;20107;-47
2022/07/19 02:56:31;;;;;;;3.75;3.35;;;;;;;16.74;100.00;96831.28;5042355;28;20085;-48
2022/07/19 02:59:00;;;;;;;5.57;4.00;;;;;;;16.88;100.00;96823.56;5036944;28;20077;-61
2022/07/19 03:01:29;;;;;;;4.45;3.63;;;;;;;16.89;100.00;96827.88;5045040;28;20087;-56
2022/07/19 03:03:59;;;;;;;4.63;3.50;;;;;;;16.77;100.00;96830.13;5044051;28;20083;-49
2022/07/19 03:06:29;;;;;;;7.68;3.90;;;;;;;16.57;100.00;96838.50;5037444;28;20092;-52
2022/07/19 03:08:57;;;;;;;7.27;4.67;;;;;;;16.45;100.00;96839.03;5042526;28;20069;-63
2022/07/19 03:11:26;;;;;;;6.70;3.90;;;;;;;16.67;100.00;96835.63;5040033;28;20090;-49
2022/07/19 03:13:54;;;;;;;6.30;4.65;;;;;;;16.38;100.00;96837.09;5045413;28;20083;-47
2022/07/19 03:16:23;;;;;;;8.98;4.38;;;;;;;16.26;100.00;96838.44;5043037;28;20075;-50
2022/07/19 03:18:51;;;;;;;9.20;5.28;;;;;;;16.16;100.00;96836.97;5046228;28;20585;-57
2022/07/19 03:21:19;;;;;;;9.40;4.65;;;;;;;16.28;100.00;96841.78;5041746;28;20542;-58
2022/07/19 03:23:49;;;;;;;7.43;4.63;;;;;;;16.40;100.00;96839.56;5043541;28;20064;-53
2022/07/19 03:26:17;;;;;;;8.43;4.82;;;;;;;16.66;100.00;96835.81;5043392;28;20076;-54
2022/07/19 03:28:46;;;;;;;6.30;4.30;;;;;;;16.57;100.00;96843.00;5044833;28;20098;-56
2022/07/19 03:31:14;;;;;;;8.77;4.03;;;;;;;16.66;100.00;96839.31;5042863;28;20084;-62
2022/07/19 03:33:43;;;;;;;6.90;4.45;;;;;;;16.45;100.00;96841.69;5043228;28;20476;-48
2022/07/19 03:36:11;;;;;;;6.60;4.57;;;;;;;16.53;100.00;96834.53;5045457;28;20088;-54
2022/07/19 03:38:39;;;;;;;8.75;5.00;;;;;;;16.41;100.00;96837.72;5051447;28;20075;-50
2022/07/19 03:41:09;;;;;;;5.43;4.40;;;;;;;16.63;100.00;96839.66;5047594;28;20073;-53
2022/07/19 03:43:38;;;;;;;5.70;3.97;;;;;;;16.87;100.00;96832.59;5045309;28;20064;-50
2022/07/19 03:46:06;;;;;;;4.63;3.70;;;;;;;16.88;100.00;96831.56;5050205;28;20502;-50
2022/07/19 03:48:35;;;;;;;5.18;3.50;;;;;;;16.78;100.00;96829.94;5044056;28;20562;-55
2022/07/19 03:51:03;;;;;;;4.78;3.33;;;;;;;16.63;100.00;96830.84;5051495;28;20080;-54
2022/07/19 03:53:34;;;;;;;4.57;3.72;;;;;;;16.63;100.00;96834.31;5047517;28;20092;-50
2022/07/19 03:56:02;;;;;;;7.40;3.55;;;;;;;16.57;100.00;96833.16;5052019;28;20482;-48
2022/07/19 03:58:32;;;;;;;6.18;3.22;;;;;;;16.78;100.00;96835.25;5044952;28;20084;-50
2022/07/19 04:01:01;;;;;;;5.53;3.70;;;;;;;16.96;100.00;96831.50;5045538;28;20077;-57
2022/07/19 04:03:29;;;;;;;4.97;3.83;;;;;;;17.46;100.00;96830.19;5046940;28;20120;-49
2022/07/19 04:05:58;;;;;;;6.85;4.70;;;;;;;18.19;100.00;96820.69;5046648;28;20106;-56
2022/07/19 04:08:26;;;;;;;5.03;4.47;;;;;;;18.77;100.00;96824.38;5043872;28;20081;-57
2022/07/19 04:10:54;;;;;;;5.25;4.00;;;;;;;18.80;100.00;96825.84;5043526;28;20119;-56
2022/07/19 04:13:22;;;;;;;4.85;4.22;;;;;;;19.36;100.00;96820.69;5043415;28;20084;-53
2022/07/19 04:15:52;;;;;;;7.43;4.63;;;;;;;19.87;100.00;96817.88;5038805;28;20085;-54
2022/07/19 04:18:21;;;;;;;6.93;4.50;;;;;;;21.00;100.00;96818.53;5043262;28;20080;-64
2022/07/19 04:20:49;;;;;;;4.60;4.15;;;;;;;21.40;100.00;96816.78;5043781;28;20085;-51
2022/07/19 04:23:18;;;;;;;6.60;4.85;;;;;;;21.38;100.00;96818.88;5044223;28;20080;-49
2022/07/19 04:25:46;;;;;;;10.93;5.05;;;;;;;22.27;100.00;96823.84;5041423;28;20107;-52
2022/07/19 04:28:15;;;;;;;9.55;4.70;;;;;;;22.82;100.00;96818.09;5046831;28;20088;-56
2022/07/19 04:30:43;;;;;;;10.13;4.63;;;;;;;23.28;100.00;96819.75;5042036;28;20100;-65
2022/07/19 04:33:15;;;;;;;6.63;4.80;;;;;;;23.72;100.00;96811.84;5042059;28;20110;-60
2022/07/19 04:35:44;;;;;;;8.40;4.30;;;;;;;24.09;100.00;96812.78;5048689;28;20087;-55
2022/07/19 04:38:13;;;;;;;6.90;4.57;;;;;;;24.34;100.00;96816.25;5042962;28;20092;-51
2022/07/19 04:40:41;;;;;;;6.60;4.70;;;;;;;24.50;99.07;96822.97;5048384;28;20092;-54
2022/07/19 04:43:09;;;;;;;6.13;5.20;;;;;;;24.94;93.35;96820.16;5048422;28;20092;-48
2022/07/19 04:45:39;;;;;;;5.63;4.28;;;;;;;24.25;100.00;96819.44;5048385;28;20088;-52
2022/07/19 04:48:07;;;;;;;7.22;4.57;;;;;;;25.48;89.06;96819.25;5048295;28;20095;-54
2022/07/19 04:50:38;;;;;;;5.28;4.20;;;;;;;26.03;82.43;96829.84;5048392;28;20486;-53
2022/07/19 04:53:06;;;;;;;8.07;4.32;;;;;;;26.16;83.93;96836.91;5051535;28;20107;-56
2022/07/19 04:55:37;;;;;;;4.82;3.90;;;;;;;26.65;79.32;96833.97;5052517;28;20137;-56
2022/07/19 04:58:06;;;;;;;7.60;4.25;;;;;;;26.87;77.02;96829.56;5051836;28;20497;-53
2022/07/19 05:00:34;;;;;;;5.53;4.57;;;;;;;26.78;80.34;96835.63;5051713;28;20076;-51
2022/07/19 05:03:03;;;;;;;4.95;4.20;;;;;;;26.92;78.59;96832.41;5051799;28;20088;-52
2022/07/19 05:05:32;;;;;;;8.07;4.80;;;;;;;26.32;82.56;96835.38;5048301;28;20114;-52
2022/07/19 05:08:01;;;;;;;6.50;4.65;;;;;;;27.04;76.33;96836.94;5048861;28;20179;-48
2022/07/19 05:10:30;;;;;;;7.95;4.70;;;;;;;27.13;76.19;96833.66;5050853;28;20088;-53
2022/07/19 05:12:58;;;;;;;9.15;4.60;;;;;;;26.87;80.31;96831.47;5048762;28;20088;-48
2022/07/19 05:15:27;;;;;;;8.75;4.65;;;;;;;27.66;70.63;96821.63;5051827;28;20077;-51
2022/07/19 05:17:55;;;;;;;6.65;4.70;;;;;;;26.79;74.04;96829.13;5051503;28;20092;-51
2022/07/19 05:20:24;;;;;;;6.80;4.80;;;;;;;26.69;75.93;96832.44;5041878;28;20076;-50
2022/07/19 05:22:52;;;;;;;6.30;4.72;;;;;;;25.38;85.93;96837.06;5048834;28;20610;-53
2022/07/19 05:25:22;;;;;;;5.60;5.00;;;;;;;26.17;82.82;96827.75;5051530;28;20092;-59
2022/07/19 05:27:51;;;;;;;7.65;5.15;;;;;;;26.09;82.22;96820.00;5051938;28;20100;-54
2022/07/19 05:30:19;;;;;;;7.28;5.00;;;;;;;25.78;87.80;96824.63;5059392;28;20076;-51
2022/07/19 05:32:48;;;;;;;6.03;5.15;;;;;;;25.84;90.26;96813.94;5051693;28;20486;-47
2022/07/19 05:35:16;;;;;;;8.30;5.80;;;;;;;25.12;100.00;96820.19;5049769;28;20088;-53
2022/07/19 05:37:44;;;;;;;9.48;5.55;;;;;;;25.17;95.58;96820.31;5051725;28;20061;-53
2022/07/19 05:40:13;;;;;;;7.25;5.63;;;;;;;24.53;100.00;96818.97;5051362;28;20080;-53
2022/07/19 05:42:43;;;;;;;7.13;5.72;;;;;;;24.89;100.00;96818.16;5043225;28;20076;-56
2022/07/19 05:45:11;;;;;;;8.10;5.75;;;;;;;25.17;100.00;96824.91;5050003;28;20092;-52
2022/07/19 05:47:39;;;;;;;7.13;5.60;;;;;;;24.90;100.00;96827.06;5051229;28;20081;-61
2022/07/19 05:50:08;;;;;;;7.40;5.25;;;;;;;25.40;100.00;96825.00;5051047;28;20087;-58
2022/07/19 05:52:37;;;;;;;8.73;5.57;;;;;;;25.66;100.00;96825.63;5044052;28;20503;-48
2022/07/19 05:55:07;;;;;;;7.30;5.32;;;;;;;26.22;100.00;96827.88;5051582;28;20060;-53
2022/07/19 05:57:35;;;;;;;8.80;5.40;;;;;;;24.97;100.00;96819.72;5050696;28;20072;-48
2022/07/19 06:00:06;;;;;;;10.57;5.07;;;;;;;24.83;100.00;96827.97;5050776;28;20087;-49
2022/07/19 06:02:35;;;;;;;8.27;5.30;;;;;;;25.57;100.00;96827.88;5049999;28;20345;-52
2022/07/19 06:05:03;;;;;;;8.32;5.80;;;;;;;24.37;100.00;96840.06;5048982;28;20075;-51
2022/07/19 06:07:31;;;;;;;10.10;5.10;;;;;;;24.63;100.00;96830.91;5048414;28;20462;-55
2022/07/19 06:10:01;;;;;;;9.93;5.05;;;;;;;24.44;100.00;96831.94;5047570;28;20080;-54
2022/07/19 06:12:30;;;;;;;9.10;5.25;;;;;;;23.56;100.00;96827.44;5045077;28;20072;-59
2022/07/19 06:14:58;;;;;;;12.95;5.30;;;;;;;24.22;100.00;96819.91;5052278;28;20101;-52
2022/07/19 06:17:28;;;;;;;8.57;5.18;;;;;;;23.80;100.00;96823.16;5044991;28;20080;-50
2022/07/19 06:19:57;;;;;;;;;;;;;;;24.37;100.00;96823.06;5051499;28;20080;-50
2022/07/19 06:22:25;;;;;;;7.80;4.97;;;;;;;24.30;100.00;96827.72;5044598;28;19956;-56
2022/07/19 06:24:53;;;;;;;7.95;5.22;;;;;;;24.03;100.00;96819.88;5037160;28;20081;-57
2022/07/19 06:27:22;;;;;;;6.75;4.90;;;;;;;24.09;100.00;96823.56;5050757;28;20092;-55
2022/07/19 06:29:50;;;;;;;7.35;4.80;;;;;;;23.85;100.00;96828.72;5050229;28;20076;-55
2022/07/19 06:32:18;;;;;;;6.65;4.93;;;;;;;23.85;100.00;96828.72;5050667;28;20065;-56
2022/07/19 06:34:48;;;;;;;7.22;4.68;;;;;;;23.92;100.00;96823.28;5050523;28;20077;-54
2022/07/19 06:37:16;;;;;;;7.43;5.43;;;;;;;23.91;100.00;96825.13;5049857;28;20519;-57
2022/07/19 06:39:45;;;;;;;6.40;4.80;;;;;;;24.21;100.00;96818.25;5050336;28;20092;-58
2022/07/19 06:42:13;;;;;;;7.10;5.20;;;;;;;24.16;100.00;96817.06;5050348;28;20512;-53
2022/07/19 06:44:42;;;;;;;7.00;4.93;;;;;;;24.25;100.00;96822.16;5050636;28;20079;-52
2022/07/19 06:47:10;;;;;;;9.48;5.10;;;;;;;24.19;100.00;96812.25;5049521;28;20079;-53
2022/07/19 06:49:38;;;;;;;7.63;4.90;;;;;;;24.56;100.00;96818.53;5050961;28;20068;-51
2022/07/19 06:52:08;;;;;;;9.40;5.10;;;;;;;24.55;100.00;96811.50;5049870;28;20515;-50
2022/07/19 06:54:42;;;;;;;7.60;4.85;;;;;;;24.89;100.00;96811.94;5047806;28;20085;-56
2022/07/19 06:57:10;;;;;;;8.10;4.63;;;;;;;24.86;100.00;96814.03;5049600;28;20079;-53
2022/07/19 06:59:39;;;;;;;6.40;4.70;;;;;;;24.86;100.00;96808.63;5048683;28;20084;-48
2022/07/19 07:02:07;;;;;;;8.68;4.35;;;;;;;24.98;100.00;96802.47;5042421;28;20068;-56
2022/07/19 07:04:36;;;;;;;5.38;4.32;;;;;;;25.11;100.00;96805.03;5049551;28;20081;-52
2022/07/19 07:07:14;;;;;;;7.70;4.57;;;;;;;24.90;100.00;96813.59;5044073;28;20084;-53
2022/07/19 07:09:43;;;;;;;7.07;4.47;;;;;;;25.06;100.00;96818.38;5038444;28;20452;-55
2022/07/19 07:12:11;;;;;;;6.72;4.30;;;;;;;25.29;100.00;96814.94;5047783;28;20091;-49
2022/07/19 07:14:40;;;;;;;6.15;4.03;;;;;;;25.36;100.00;96821.06;5043599;28;20462;-52
2022/07/19 07:17:08;;;;;;;8.20;4.13;;;;;;;25.26;100.00;96815.44;5050057;28;20069;-48
2022/07/19 07:19:37;;;;;;;7.65;3.72;;;;;;;25.35;100.00;96814.03;5049416;28;20215;-51
2022/07/19 07:22:05;;;;;;;9.95;4.30;;;;;;;25.60;100.00;96816.56;5049702;28;20072;-58
2022/07/19 07:24:35;;;;;;;6.32;3.65;;;;;;;25.97;100.00;96821.84;5052277;28;20060;-56
2022/07/19 07:27:04;;;;;;;5.80;4.07;;;;;;;25.99;100.00;96817.03;5049400;28;20080;-55
2022/07/19 07:29:33;;;;;;;5.90;4.28;;;;;;;25.81;100.00;96817.97;5049119;28;20091;-53
2022/07/19 07:32:01;;;;;;;4.95;3.40;;;;;;;26.53;100.00;96820.44;5054261;28;20110;-52
2022/07/19 07:34:30;;;;;;;7.28;3.50;;;;;;;26.37;100.00;96816.56;5049307;28;20538;-58
2022/07/19 07:37:04;;;;;;;6.22;3.40;;;;;;;27.01;100.00;96813.88;5049316;28;20088;-55
2022/07/19 07:39:32;;;;;;;5.32;3.20;;;;;;;26.64;100.00;96816.94;5048949;28;20089;-54
2022/07/19 07:42:03;;;;;;;4.93;3.05;;;;;;;26.83;93.85;96811.34;5048709;28;20068;-53
2022/07/19 07:44:39;;;;;;;5.50;3.17;;;;;;;26.89;95.32;96813.13;5049151;28;20080;-53
2022/07/19 07:47:08;;;;;;;5.95;3.45;;;;;;;26.83;95.38;96811.34;5048466;28;20474;-57
2022/07/19 07:49:37;;;;;;;5.40;3.58;;;;;;;27.30;90.25;96808.53;5044641;28;20096;-55
2022/07/19 07:52:06;;;;;;;4.85;3.45;;;;;;;27.32;89.35;96809.91;5045160;28;20076;-59
2022/07/19 07:54:35;;;;;;;6.47;3.25;;;;;;;27.84;86.60;96801.66;5049267;28;20511;-50
2022/07/19 07:57:12;;;;;;;4.57;3.25;;;;;;;28.14;80.81;96798.59;5046876;28;20472;-55
2022/07/19 07:59:41;;;;;;;7.18;3.30;;;;;;;27.73;80.78;96794.38;5048736;28;20744;-50
2022/07/19 08:02:09;;;;;;;3.97;3.20;;;;;;;27.83;76.96;96796.47;5048520;28;20088;-59
2022/07/19 08:04:38;;;;;;;4.20;2.92;;;;;;;27.86;74.95;96795.97;5049230;28;20065;-54
2022/07/19 08:07:07;;;;;;;8.80;3.15;;;;;;;28.28;78.31;96799.06;5049991;28;20099;-62
2022/07/19 08:09:35;;;;;;;5.20;2.90;;;;;;;28.21;74.80;96798.41;5040297;28;20065;-50
2022/07/19 08:12:04;;;;;;;4.88;2.83;;;;;;;27.93;72.40;96794.72;5047265;28;20072;-51
2022/07/19 08:14:33;;;;;;;6.90;2.90;;;;;;;28.39;69.46;96794.66;5048557;28;20538;-56
2022/07/19 08:17:02;;;;;;;5.80;2.88;;;;;;;28.06;66.16;96782.75;5048465;28;20084;-54
2022/07/19 08:19:30;;;;;;;4.53;3.10;;;;;;;28.50;66.58;96782.88;5048375;28;20080;-57
2022/07/19 08:21:59;;;;;;;5.07;2.65;;;;;;;27.95;64.65;96790.97;5045873;28;20064;-51
2022/07/19 08:24:27;;;;;;;4.03;2.70;;;;;;;28.35;61.05;96791.56;5047677;28;20095;-57
2022/07/19 08:26:56;;;;;;;5.78;3.13;;;;;;;28.49;60.78;96786.63;5045578;28;20072;-52
2022/07/19 08:29:25;;;;;;;3.90;2.65;;;;;;;29.07;61.93;96787.91;5052965;28;20065;-58
2022/07/19 08:31:54;;;;;;;3.65;2.80;;;;;;;28.59;59.82;96794.09;5042404;28;20065;-57
2022/07/19 08:34:23;;;;;;;4.60;2.58;;;;;;;28.65;58.26;96787.66;5052285;28;20129;-54
2022/07/19 08:36:51;;;;;;;3.42;2.60;;;;;;;29.18;55.63;96791.59;5053195;28;20095;-51
2022/07/19 08:39:19;;;;;;;3.50;2.67;;;;;;;28.96;55.80;96788.84;5052989;28;20068;-62
2022/07/19 08:41:48;;;;;;;3.85;2.42;;;;;;;29.41;51.35;96785.03;5052954;28;20064;-56
2022/07/19 08:44:18;;;;;;;5.28;2.67;;;;;;;29.67;51.41;96785.31;5043710;28;20048;-52
2022/07/19 08:46:46;;;;;;;3.15;2.45;;;;;;;29.75;50.33;96785.63;5047654;28;20080;-56
2022/07/19 08:49:16;;;;;;;7.45;2.60;;;;;;;29.80;49.30;96785.69;5047485;28;20091;-55
2022/07/19 08:51:45;;;;;;;5.22;2.63;;;;;;;29.89;48.76;96791.47;5046303;28;20069;-48
2022/07/19 08:54:14;;;;;;;5.45;2.53;;;;;;;30.21;47.89;96786.03;5048687;28;20527;-56
2022/07/19 08:59:30;;;;;;;4.25;2.30;;;;;;;29.87;45.79;96782.75;5048571;28;20467;-56
2022/07/19 09:01:59;;;;;;;4.80;2.35;;;;;;;29.88;47.83;96776.22;5052249;28;20102;-57
2022/07/19 09:04:30;;;;;;;5.00;2.40;;;;;;;29.99;45.06;96783.38;5045940;28;20085;-55
2022/07/19 09:06:59;;;;;;;3.53;2.28;;;;;;;30.02;44.97;96782.03;5047430;28;20089;-48
2022/07/19 09:09:28;;;;;;;3.90;3.00;;;;;;;29.75;44.05;96772.03;5052092;28;20080;-59
2022/07/19 09:11:58;;;;;;;4.47;2.20;;;;;;;30.39;44.29;96771.16;5051914;28;20069;-53
2022/07/19 09:14:29;;;;;;;5.07;2.60;;;;;;;30.25;43.46;96772.72;5047764;28;20452;-53
2022/07/19 09:17:02;;;;;;;3.47;2.10;;;;;;;30.18;41.76;96772.94;5050584;28;20080;-55
2022/07/19 09:19:35;;;;;;;4.20;2.60;;;;;;;30.68;42.17;96768.03;5055301;28;20068;-55
2022/07/19 09:22:05;;;;;;;4.28;2.10;;;;;;;30.57;41.96;96760.91;5045181;28;20561;-55
2022/07/19 09:24:35;;;;;;;4.63;2.38;;;;;;;30.26;41.30;96767.00;5049681;28;20080;-59
2022/07/19 09:27:06;;;;;;;6.40;2.50;;;;;;;30.79;41.39;96764.28;5050039;28;20081;-53
2022/07/19 09:29:37;;;;;;;4.30;2.17;;;;;;;31.02;40.87;96760.28;5051514;28;20072;-55
2022/07/19 09:32:09;;;;;;;;;;;;;;;30.74;39.79;96764.25;5052248;28;20495;-54
2022/07/19 09:34:41;;;;;;;5.63;2.30;;;;;;;30.38;39.68;96763.25;5054391;28;19955;-56
2022/07/19 09:37:11;;;;;;;4.28;2.20;;;;;;;30.67;38.27;96752.78;5051698;28;20092;-57
2022/07/19 09:39:41;;;;;;;4.07;2.00;;;;;;;30.30;37.77;96753.69;5051005;28;20072;-56
2022/07/19 09:42:09;;;;;;;;;;;;;;;30.60;38.47;96753.03;5051681;28;20077;-57
2022/07/19 09:44:37;;;;;;;4.22;2.00;;;;;;;30.45;38.90;96747.50;5051213;28;19956;-60
2022/07/19 09:47:07;;;;;;;5.57;2.03;;;;;;;30.87;38.71;96754.81;5051693;28;20396;-53
2022/07/19 09:49:41;;;;;;;3.30;1.65;;;;;;;30.97;36.43;96747.50;5050320;28;20072;-48
2022/07/19 09:52:10;;;;;;;4.75;2.13;;;;;;;31.01;35.68;96745.03;5047764;28;20128;-56
2022/07/19 09:54:40;;;;;;;4.70;2.00;;;;;;;31.23;35.34;96744.81;5051045;28;20076;-52
2022/07/19 09:57:09;;;;;;;6.22;2.05;;;;;;;31.31;35.44;96747.00;5050222;28;20177;-51
2022/07/19 09:59:39;;;;;;;6.85;1.90;;;;;;;31.01;35.24;96742.31;5052197;28;20088;-57
2022/07/19 10:02:07;;;;;;;3.78;1.83;;;;;;;30.81;35.40;96739.53;5046436;28;20091;-55
2022/07/19 10:04:36;;;;;;;5.80;1.77;;;;;;;30.86;34.73;96734.09;5046721;28;20057;-56
2022/07/19 10:07:06;;;;;;;3.88;2.17;;;;;;;31.00;35.45;96739.84;5051150;28;20508;-57
2022/07/19 10:09:36;;;;;;;6.63;1.92;;;;;;;31.19;35.45;96732.81;5050605;28;20080;-55
2022/07/19 10:12:05;;;;;;;3.45;1.90;;;;;;;31.07;34.01;96732.25;5051004;28;20083;-49
2022/07/19 10:14:34;;;;;;;3.50;1.92;;;;;;;31.29;35.84;96737.47;5050591;28;20088;-58
2022/07/19 10:17:10;;;;;;;4.30;1.90;;;;;;;31.42;35.32;96729.63;5047610;28;20567;-51
2022/07/19 10:19:40;;;;;;;7.70;1.90;;;;;;;31.42;34.63;96726.06;5045013;28;20123;-50
2022/07/19 10:22:13;;;;;;;4.53;1.90;;;;;;;31.70;35.24;96722.00;5050614;28;20085;-53
2022/07/19 10:24:44;;;;;;;4.38;2.05;;;;;;;31.58;34.95;96715.97;5050708;28;20087;-56
2022/07/19 10:27:12;;;;;;;2.95;1.83;;;;;;;31.74;35.14;96720.34;5050636;28;20088;-58
2022/07/19 10:29:41;;;;;;;2.70;1.65;;;;;;;32.02;35.18;96710.78;5045647;28;20080;-55
2022/07/19 10:32:11;;;;;;;3.67;1.90;;;;;;;31.97;34.89;96709.97;5050668;28;20077;-57
2022/07/19 10:34:39;;;;;;;;;;;;;;;32.05;31.93;96712.16;5051279;28;20080;-59
2022/07/19 10:37:08;;;;;;;3.20;1.92;;;;;;;32.41;32.57;96721.06;5046974;28;19959;-57
2022/07/19 10:39:38;;;;;;;3.70;2.00;;;;;;;32.02;32.86;96712.72;5050036;28;20084;-53
2022/07/19 10:42:17;;;;;;;2.83;1.75;;;;;;;32.18;32.40;96708.84;5050226;28;20088;-54
2022/07/19 10:45:12;;;;;;;4.35;2.05;;;;;;;32.49;33.03;96709.59;5047874;28;20115;-55
2022/07/19 10:48:09;;;;;;;3.95;1.80;;;;;;;32.46;31.05;96712.06;5046490;28;20060;-52
2022/07/19 10:50:49;;;;;;;5.03;1.60;;;;;;;32.30;30.76;96714.00;5049332;28;20092;-57
2022/07/19 10:54:03;;;;;;;2.80;1.60;;;;;;;32.57;31.59;96705.47;5044272;28;20104;-51
2022/07/19 10:56:35;;;;;;;2.55;1.48;;;;;;;32.41;30.58;96704.66;5007157;28;20073;-54
2022/07/19 10:59:35;;;;;;;5.97;1.67;;;;;;;32.17;31.41;96712.66;5038949;28;20088;-56
2022/07/19 11:02:05;;;;;;;2.85;1.40;;;;;;;32.50;30.73;96704.97;5048970;28;20088;-55
2022/07/19 11:04:53;;;;;;;3.38;1.55;;;;;;;32.77;30.89;96699.09;5049859;28;20083;-58
2022/07/19 11:07:23;;;;;;;4.28;1.60;;;;;;;32.81;31.29;96700.97;5050100;28;20088;-56
2022/07/19 11:09:53;;;;;;;;;;;;;;;32.88;30.47;96708.06;5050289;28;20084;-54
2022/07/19 11:12:31;;;;;;;4.15;1.70;;;;;;;32.82;31.12;96693.59;5049766;28;19948;-55
2022/07/19 11:15:02;;;;;;;4.53;1.60;;;;;;;33.00;30.26;96694.88;5050259;28;20088;-52
2022/07/19 11:17:53;;;;;;;3.75;1.75;;;;;;;32.96;29.54;96693.81;5043492;28;20087;-54
2022/07/19 11:20:23;;;;;;;4.47;1.80;;;;;;;32.76;30.21;96689.25;5045708;28;20091;-55
2022/07/19 11:22:52;;;;;;;2.55;1.83;;;;;;;32.74;31.47;96689.53;5044954;28;20088;-53
2022/07/19 11:25:26;;;;;;;2.97;1.77;;;;;;;33.19;30.17;96687.66;5050944;28;20179;-54
2022/07/19 11:27:55;;;;;;;1.60;1.40;;;;;;;33.46;29.80;96683.66;5045295;28;20084;-53
2022/07/19 11:30:24;;;;;;;5.78;2.00;;;;;;;33.15;28.62;96683.88;5049231;28;20072;-52
2022/07/19 11:32:54;;;;;;;2.92;1.70;;;;;;;33.24;29.23;96684.06;5049034;28;20092;-54
2022/07/19 11:35:22;;;;;;;3.90;1.85;;;;;;;33.59;29.16;96677.56;5051481;28;20099;-60
2022/07/19 11:37:53;;;;;;;3.58;1.90;;;;;;;33.76;28.80;96679.88;5049194;28;20055;-55
2022/07/19 11:40:23;;;;;;;4.28;2.40;;;;;;;33.33;27.82;96664.03;5049004;28;20087;-53
2022/07/19 11:42:52;;;;;;;4.95;2.70;;;;;;;33.29;28.48;96663.00;5046711;28;20730;-54